Kansas City, Missouri
Traffic Map
Current Weather Conditions
Kansas City, Missouri
Overcast
Overcast
24°
Feels Like: 24°
Wind Chill: 24° Ceiling: 4500
Heat Index: 24° Visibility: 8mi
Dew Point: 20° Wind: 0mph
Humidity: 84% Direction: ° ()
Pressure: 30.37in Gusts: 0mph
Raw Report DataKMKC 011154Z AUTO 00000KT 8SM OVC045 M04/M07 A3037 RMK AO2 SNB01E32 SLP294 P0000 60000 70001 T10441067 11039 21044 55000
Traffic Incident Summary
Active as of:
Severity:
Category:
InformationThere was an issue retrieving the traffic information for this location. Please try a different location or try again shortly.
Advertisements
Track Severe Weather on mobile